createdAt,value
2022-12-17T00:02:23.380Z,174.73
2022-12-17T00:05:08.611Z,188.93
2022-12-17T00:07:54.989Z,174.18
2022-12-17T00:10:41.163Z,154.45
2022-12-17T00:13:37.123Z,170.07
2022-12-17T00:16:22.852Z,155.05
2022-12-17T00:19:08.152Z,167.73
2022-12-17T00:21:53.234Z,137.02
2022-12-17T00:24:41.362Z,187.57
2022-12-17T00:27:26.518Z,160.10
2022-12-17T00:30:11.654Z,146.20
2022-12-17T00:32:56.949Z,140.02
2022-12-17T00:35:42.196Z,163.02
2022-12-17T00:38:36.068Z,174.95
2022-12-17T00:41:21.183Z,184.52
2022-12-17T00:44:06.471Z,172.20
2022-12-17T00:46:51.700Z,184.85
2022-12-17T00:49:37.350Z,167.82
2022-12-17T00:52:22.534Z,163.88
2022-12-17T00:55:07.706Z,177.15
2022-12-17T00:57:52.909Z,176.52
2022-12-17T01:00:38.185Z,186.23
2022-12-17T01:03:28.906Z,178.60
2022-12-17T01:06:14.087Z,172.52
2022-12-17T01:08:59.081Z,156.60
2022-12-17T01:11:44.378Z,174.25
2022-12-17T01:14:29.515Z,157.75
2022-12-17T01:17:14.662Z,164.27
2022-12-17T01:19:59.675Z,156.13
2022-12-17T01:22:44.762Z,150.77
2022-12-17T01:25:30.022Z,147.73
2022-12-17T01:28:16.713Z,160.10
2022-12-17T01:31:01.932Z,165.30
2022-12-17T01:33:47.280Z,140.43
2022-12-17T01:36:32.614Z,164.02
2022-12-17T01:39:17.776Z,148.88
2022-12-17T01:42:02.561Z,125.80
2022-12-17T01:45:09.161Z,152.90
2022-12-17T01:48:18.090Z,124.57
2022-12-17T01:51:08.137Z,126.07
2022-12-17T01:53:56.498Z,145.68
2022-12-17T01:56:44.207Z,138.23
2022-12-17T01:59:31.811Z,134.52
2022-12-17T02:02:17.693Z,139.45
2022-12-17T02:05:03.025Z,140.82
2022-12-17T02:08:10.619Z,160.95
2022-12-17T02:11:14.441Z,152.35
2022-12-17T02:14:01.269Z,135.05
2022-12-17T02:16:56.942Z,163.98
2022-12-17T02:20:06.643Z,130.07
2022-12-17T02:23:12.321Z,146.77
2022-12-17T02:26:06.315Z,155.90
2022-12-17T02:28:53.701Z,165.07
2022-12-17T02:31:39.672Z,170.40
2022-12-17T02:34:25.518Z,169.07
2022-12-17T02:37:10.633Z,180.00
2022-12-17T02:39:56.688Z,185.25
2022-12-17T02:42:43.214Z,188.70
2022-12-17T02:45:43.817Z,205.55
2022-12-17T02:48:30.767Z,199.60
2022-12-17T02:51:16.876Z,200.48
2022-12-17T02:54:04.608Z,207.68
2022-12-17T02:56:50.874Z,224.63
2022-12-17T02:59:36.228Z,216.18
2022-12-17T03:02:28.846Z,181.50
2022-12-17T03:05:42.666Z,188.32
2022-12-17T03:08:19.033Z,200.98
2022-12-17T03:11:04.141Z,199.45
2022-12-17T03:13:49.441Z,212.45
2022-12-17T03:16:37.651Z,204.52
2022-12-17T03:19:23.177Z,196.05
2022-12-17T03:22:08.467Z,192.13
2022-12-17T03:24:53.562Z,169.82
2022-12-17T03:27:38.679Z,159.65
2022-12-17T03:30:24.164Z,144.95
2022-12-17T03:33:09.365Z,163.65
2022-12-17T03:35:54.786Z,170.35
2022-12-17T03:38:39.883Z,164.82
2022-12-17T03:41:25.337Z,159.10
2022-12-17T03:44:10.448Z,167.55
2022-12-17T03:46:55.690Z,151.30
2022-12-17T03:49:40.845Z,175.13
2022-12-17T03:52:25.929Z,167.30
2022-12-17T03:55:11.109Z,159.07
2022-12-17T03:57:55.907Z,155.68
2022-12-17T04:00:41.026Z,149.02
2022-12-17T04:03:26.234Z,142.73
2022-12-17T04:06:13.090Z,139.27
2022-12-17T04:08:58.096Z,132.65
2022-12-17T04:11:43.244Z,140.65
2022-12-17T04:14:28.523Z,140.98
2022-12-17T04:17:13.820Z,128.88
2022-12-17T04:19:58.948Z,141.75
2022-12-17T04:22:43.768Z,130.00
2022-12-17T04:25:28.869Z,125.40
2022-12-17T04:28:14.127Z,138.95
2022-12-17T04:30:59.199Z,126.50
2022-12-17T04:33:44.545Z,132.93
2022-12-17T04:36:29.436Z,122.90
2022-12-17T04:39:14.625Z,132.85
2022-12-17T04:41:59.764Z,116.38
2022-12-17T04:44:44.973Z,113.45
2022-12-17T04:47:30.258Z,116.03
2022-12-17T04:50:15.374Z,121.80
2022-12-17T04:53:00.690Z,116.35
2022-12-17T04:55:45.717Z,125.35
2022-12-17T04:58:30.876Z,117.00
2022-12-17T05:01:16.082Z,112.45
2022-12-17T05:04:01.405Z,111.80
2022-12-17T05:06:46.661Z,120.13
2022-12-17T05:09:31.658Z,123.45
2022-12-17T05:12:18.056Z,115.78
2022-12-17T05:15:03.119Z,113.50
2022-12-17T05:17:48.434Z,116.13
2022-12-17T05:20:36.268Z,101.35
2022-12-17T05:23:25.502Z,107.00
2022-12-17T05:26:24.446Z,106.78
2022-12-17T05:29:15.482Z,105.68
2022-12-17T05:32:01.289Z,111.43
2022-12-17T05:34:46.427Z,112.15
2022-12-17T05:37:31.641Z,98.93
2022-12-17T05:40:16.566Z,118.88
2022-12-17T05:43:01.802Z,118.80
2022-12-17T05:45:46.738Z,121.40
2022-12-17T05:48:31.760Z,131.73
2022-12-17T05:51:16.912Z,123.75
2022-12-17T05:54:06.644Z,134.40
2022-12-17T05:56:51.794Z,120.93
2022-12-17T05:59:36.924Z,120.90
2022-12-17T06:02:29.643Z,113.40
2022-12-17T06:05:14.819Z,122.93
2022-12-17T06:08:00.162Z,131.55
2022-12-17T06:10:45.285Z,122.55
2022-12-17T06:13:30.531Z,127.30
2022-12-17T06:16:15.691Z,139.07
2022-12-17T06:19:00.810Z,135.88
2022-12-17T06:21:46.165Z,137.68
2022-12-17T06:24:31.335Z,135.90
2022-12-17T06:27:16.704Z,127.95
2022-12-17T06:30:01.898Z,128.73
2022-12-17T06:32:47.119Z,143.00
2022-12-17T06:35:32.039Z,129.35
2022-12-17T06:38:22.311Z,128.93
2022-12-17T06:41:08.077Z,127.63
2022-12-17T06:43:53.254Z,135.05
2022-12-17T06:46:38.408Z,135.95
2022-12-17T06:49:23.803Z,127.18
2022-12-17T06:52:08.914Z,136.02
2022-12-17T06:54:54.099Z,139.85
2022-12-17T06:57:41.263Z,139.68
2022-12-17T07:00:28.198Z,159.98
2022-12-17T07:03:17.099Z,154.13
2022-12-17T07:06:02.317Z,150.23
2022-12-17T07:08:47.528Z,150.25
2022-12-17T07:11:32.933Z,152.77
2022-12-17T07:14:18.072Z,158.75
2022-12-17T07:17:03.271Z,141.65
2022-12-17T07:19:48.455Z,148.73
2022-12-17T07:22:33.550Z,137.93
2022-12-17T07:25:18.806Z,140.75
2022-12-17T07:28:12.028Z,138.45
2022-12-17T07:30:57.073Z,162.18
2022-12-17T07:33:42.342Z,137.57
2022-12-17T07:36:27.389Z,143.18
2022-12-17T07:39:12.589Z,146.80
2022-12-17T07:41:57.688Z,141.93
2022-12-17T07:44:42.854Z,160.23
2022-12-17T07:47:28.055Z,141.55
2022-12-17T07:50:13.238Z,149.23
2022-12-17T07:52:58.497Z,142.45
2022-12-17T07:55:43.687Z,142.82
2022-12-17T07:58:29.856Z,140.82
2022-12-17T08:01:18.793Z,136.77
2022-12-17T08:04:03.897Z,141.43
2022-12-17T08:06:49.807Z,141.85
2022-12-17T08:09:34.960Z,147.85
2022-12-17T08:12:20.114Z,141.48
2022-12-17T08:15:05.260Z,140.50
2022-12-17T08:17:50.305Z,139.90
2022-12-17T08:20:35.717Z,131.15
2022-12-17T08:23:24.461Z,133.07
2022-12-17T08:26:09.529Z,139.43
2022-12-17T08:28:54.737Z,131.52
2022-12-17T08:31:41.933Z,134.57
2022-12-17T08:34:27.156Z,128.15
2022-12-17T08:37:12.414Z,131.70
2022-12-17T08:39:57.615Z,134.60
2022-12-17T08:42:43.319Z,137.38
2022-12-17T08:45:28.580Z,121.10
2022-12-17T08:48:21.162Z,130.50
2022-12-17T08:51:06.038Z,119.95
2022-12-17T08:53:51.359Z,121.95
2022-12-17T08:56:36.531Z,131.73
2022-12-17T08:59:21.738Z,131.32
2022-12-17T09:02:07.990Z,124.72
2022-12-17T09:04:53.190Z,125.78
2022-12-17T09:07:38.302Z,131.95
2022-12-17T09:10:23.870Z,130.98
2022-12-17T09:13:09.023Z,128.23
2022-12-17T09:15:54.090Z,114.22
2022-12-17T09:18:39.961Z,117.65
2022-12-17T09:21:26.143Z,126.38
2022-12-17T09:24:11.248Z,126.70
2022-12-17T09:26:56.573Z,122.82
2022-12-17T09:29:41.683Z,120.60
2022-12-17T09:32:26.972Z,134.48
2022-12-17T09:35:11.892Z,123.78
2022-12-17T09:38:01.669Z,123.25
2022-12-17T09:40:48.676Z,128.02
2022-12-17T09:43:58.930Z,125.47
2022-12-17T09:47:05.364Z,107.43
2022-12-17T09:49:51.252Z,112.03
2022-12-17T09:52:50.158Z,106.90
2022-12-17T09:55:44.991Z,101.40
2022-12-17T09:58:49.053Z,109.72
2022-12-17T10:01:36.920Z,103.63
2022-12-17T10:04:31.630Z,97.05
2022-12-17T10:07:16.987Z,109.43
2022-12-17T10:10:10.635Z,106.00
2022-12-17T10:12:55.466Z,99.53
2022-12-17T10:15:40.685Z,107.78
2022-12-17T10:18:28.534Z,112.03
2022-12-17T10:21:17.038Z,104.03
2022-12-17T10:24:02.224Z,101.20
2022-12-17T10:26:50.591Z,101.10
2022-12-17T10:29:48.233Z,103.18
2022-12-17T10:32:33.489Z,96.97
2022-12-17T10:35:33.195Z,95.88
2022-12-17T10:38:20.011Z,92.93
2022-12-17T10:41:04.968Z,96.85
2022-12-17T10:43:52.107Z,99.25
2022-12-17T10:46:48.000Z,100.22
2022-12-17T10:49:35.291Z,95.18
2022-12-17T10:52:46.397Z,91.75
2022-12-17T10:55:41.103Z,90.60
2022-12-17T10:58:34.997Z,95.68
2022-12-17T11:01:21.774Z,96.40
2022-12-17T11:04:13.608Z,155.07
2022-12-17T11:07:04.654Z,92.30
2022-12-17T11:09:50.913Z,89.13
2022-12-17T11:12:38.620Z,94.13
2022-12-17T11:15:36.067Z,97.53
2022-12-17T11:18:22.897Z,88.32
2022-12-17T11:21:16.122Z,97.63
2022-12-17T11:24:02.652Z,82.97
2022-12-17T11:26:51.321Z,90.22
2022-12-17T11:29:36.602Z,90.47
2022-12-17T11:32:33.170Z,82.10
2022-12-17T11:35:39.388Z,90.80
2022-12-17T11:38:51.190Z,94.13
2022-12-17T11:42:14.218Z,85.00
2022-12-17T11:45:09.085Z,89.22
2022-12-17T11:48:17.681Z,81.88
2022-12-17T11:51:41.743Z,94.70
2022-12-17T11:55:02.629Z,88.35
2022-12-17T11:58:08.006Z,87.72
2022-12-17T12:01:09.892Z,80.63
2022-12-17T12:04:12.219Z,79.82
2022-12-17T12:07:08.228Z,76.90
2022-12-17T12:10:08.668Z,74.20
2022-12-17T12:13:11.734Z,74.85
2022-12-17T12:16:23.883Z,78.68
2022-12-17T12:19:18.982Z,83.93
2022-12-17T12:22:17.881Z,90.38
2022-12-17T12:25:34.241Z,78.15
2022-12-17T12:28:52.984Z,79.82
2022-12-17T12:31:56.068Z,78.50
2022-12-17T12:34:47.882Z,79.63
2022-12-17T12:37:36.053Z,87.40
2022-12-17T12:40:30.422Z,78.20
2022-12-17T12:43:23.019Z,79.40
2022-12-17T12:46:08.209Z,79.95
2022-12-17T12:49:21.129Z,82.40
2022-12-17T12:52:14.632Z,78.85
2022-12-17T12:55:06.028Z,97.85
2022-12-17T12:57:55.656Z,84.03
2022-12-17T13:00:56.904Z,81.63
2022-12-17T13:03:46.773Z,75.07
2022-12-17T13:06:16.027Z,81.75
2022-12-17T13:08:42.563Z,88.97
2022-12-17T13:11:24.974Z,69.82
2022-12-17T13:13:57.679Z,70.88
2022-12-17T13:16:32.407Z,73.80
2022-12-17T13:19:22.862Z,77.85
2022-12-17T13:21:49.486Z,71.93
2022-12-17T13:24:25.237Z,73.10
2022-12-17T13:26:52.369Z,74.57
2022-12-17T13:29:27.488Z,75.18
2022-12-17T13:32:08.828Z,71.90
2022-12-17T13:34:51.970Z,82.72
2022-12-17T13:37:39.745Z,84.40
2022-12-17T13:40:21.280Z,77.20
2022-12-17T13:42:48.731Z,79.20
2022-12-17T13:45:22.215Z,84.88
2022-12-17T13:47:56.230Z,83.05
2022-12-17T13:50:35.570Z,84.53
2022-12-17T13:53:13.093Z,92.93
2022-12-17T13:55:53.251Z,84.38
2022-12-17T13:58:22.165Z,81.35
2022-12-17T14:00:48.769Z,82.82
2022-12-17T14:03:28.432Z,80.57
2022-12-17T14:06:09.186Z,82.22
2022-12-17T14:08:36.067Z,75.30
2022-12-17T14:11:21.490Z,78.45
2022-12-17T14:13:50.130Z,75.60
2022-12-17T14:16:18.016Z,79.65
2022-12-17T14:18:47.593Z,89.57
2022-12-17T14:21:14.211Z,79.32
2022-12-17T14:23:41.206Z,81.28
2022-12-17T14:26:11.688Z,79.70
2022-12-17T14:28:58.491Z,75.38
2022-12-17T14:31:28.822Z,81.60
2022-12-17T14:34:11.607Z,78.68
2022-12-17T14:36:42.699Z,82.25
2022-12-17T14:39:18.756Z,80.90
2022-12-17T14:42:03.950Z,78.68
2022-12-17T14:44:31.197Z,78.35
2022-12-17T14:47:13.186Z,82.30
2022-12-17T14:49:55.251Z,89.75
2022-12-17T14:52:48.781Z,84.85
2022-12-17T14:55:27.488Z,84.65
2022-12-17T14:58:07.887Z,87.00
2022-12-17T15:00:47.064Z,89.63
2022-12-17T15:03:18.922Z,86.15
2022-12-17T15:05:51.221Z,89.80
2022-12-17T15:08:17.862Z,92.00
2022-12-17T15:10:44.392Z,85.25
2022-12-17T15:13:10.966Z,80.80
2022-12-17T15:15:37.476Z,88.38
2022-12-17T15:18:04.091Z,96.07
2022-12-17T15:20:31.411Z,81.75
2022-12-17T15:22:57.946Z,85.50
2022-12-17T15:25:24.530Z,91.97
2022-12-17T15:27:51.160Z,83.68
2022-12-17T15:30:18.080Z,88.88
2022-12-17T15:32:45.417Z,86.43
2022-12-17T15:35:13.300Z,86.78
2022-12-17T15:37:39.948Z,86.63
2022-12-17T15:40:07.529Z,87.68
2022-12-17T15:42:52.586Z,90.90
2022-12-17T15:45:19.458Z,83.10
2022-12-17T15:47:46.036Z,90.53
2022-12-17T15:50:12.594Z,87.15
2022-12-17T15:52:39.183Z,87.78
2022-12-17T15:55:06.256Z,93.55
2022-12-17T15:57:32.949Z,88.20
2022-12-17T15:59:59.502Z,90.97
2022-12-17T16:02:26.281Z,95.13
2022-12-17T16:04:52.943Z,81.40
2022-12-17T16:07:19.595Z,97.50
2022-12-17T16:09:46.165Z,91.22
2022-12-17T16:12:12.746Z,104.38
2022-12-17T16:14:39.304Z,100.35
2022-12-17T16:17:05.836Z,101.40
2022-12-17T16:19:32.336Z,105.72
2022-12-17T16:21:58.941Z,98.38
2022-12-17T16:24:25.545Z,101.50
2022-12-17T16:26:52.116Z,101.95
2022-12-17T16:29:18.656Z,97.88
2022-12-17T16:31:46.216Z,97.50
2022-12-17T16:34:13.394Z,104.55
2022-12-17T16:36:39.979Z,94.20
2022-12-17T16:39:06.584Z,106.20
2022-12-17T16:41:33.521Z,96.03
2022-12-17T16:44:01.016Z,105.68
2022-12-17T16:46:32.943Z,105.22
2022-12-17T16:49:04.814Z,97.43
2022-12-17T16:51:31.388Z,100.85
2022-12-17T16:53:58.786Z,103.07
2022-12-17T16:56:27.712Z,93.30
2022-12-17T16:58:55.089Z,90.53
2022-12-17T17:01:23.469Z,97.85
2022-12-17T17:03:50.291Z,95.45
2022-12-17T17:06:17.876Z,96.68
2022-12-17T17:08:44.897Z,95.68
2022-12-17T17:11:14.054Z,97.13
2022-12-17T17:13:41.255Z,88.80
2022-12-17T17:16:09.845Z,90.03
2022-12-17T17:18:37.326Z,95.05
2022-12-17T17:21:21.519Z,87.55
2022-12-17T17:26:15.873Z,91.60
2022-12-17T17:28:42.766Z,88.18
2022-12-17T17:31:12.385Z,99.90
2022-12-17T17:33:43.122Z,93.80
2022-12-17T17:36:11.796Z,98.03
2022-12-17T17:38:40.262Z,95.88
2022-12-17T17:41:10.204Z,104.47
2022-12-17T17:43:36.728Z,95.57
2022-12-17T17:46:08.721Z,97.15
2022-12-17T17:48:36.002Z,107.55
2022-12-17T17:51:08.796Z,106.75
2022-12-17T17:53:35.842Z,85.10
2022-12-17T17:56:07.554Z,100.57
2022-12-17T17:58:34.727Z,100.90
2022-12-17T18:01:08.462Z,95.65
2022-12-17T18:03:35.452Z,102.20
2022-12-17T18:06:03.279Z,100.68
2022-12-17T18:08:34.438Z,94.05
2022-12-17T18:11:02.438Z,87.05
2022-12-17T18:13:48.238Z,95.10
2022-12-17T18:16:15.220Z,90.05
2022-12-17T18:18:41.824Z,91.88
2022-12-17T18:21:13.401Z,93.88
2022-12-17T18:23:40.395Z,94.05
2022-12-17T18:26:20.652Z,90.85
2022-12-17T18:28:47.835Z,91.60
2022-12-17T18:31:18.143Z,100.55
2022-12-17T18:33:48.302Z,102.07
2022-12-17T18:36:18.989Z,93.30
2022-12-17T18:38:45.831Z,94.18
2022-12-17T18:41:36.138Z,95.47
2022-12-17T18:44:05.233Z,92.47
2022-12-17T18:46:33.222Z,100.75
2022-12-17T18:49:02.104Z,132.85
2022-12-17T18:51:32.035Z,105.55
2022-12-17T18:54:00.125Z,105.47
2022-12-17T18:56:59.453Z,100.07
2022-12-17T18:59:16.747Z,97.97
2022-12-17T19:01:43.751Z,97.07
2022-12-17T19:04:12.641Z,108.40
2022-12-17T19:06:39.814Z,105.00
2022-12-17T19:09:07.556Z,104.90
2022-12-17T19:11:40.414Z,106.13
2022-12-17T19:14:09.973Z,104.47
2022-12-17T19:16:36.660Z,106.30
2022-12-17T19:19:04.589Z,111.45
2022-12-17T19:21:33.624Z,104.20
2022-12-17T19:24:03.373Z,105.40
2022-12-17T19:26:30.432Z,101.75
2022-12-17T19:28:58.161Z,86.05
2022-12-17T19:31:28.136Z,117.05
2022-12-17T19:33:59.234Z,108.97
2022-12-17T19:36:28.610Z,105.47
2022-12-17T19:38:57.719Z,104.38
2022-12-17T19:41:25.179Z,107.13
2022-12-17T19:44:00.375Z,110.22
2022-12-17T19:46:27.076Z,109.50
2022-12-17T19:48:54.320Z,112.57
2022-12-17T19:51:26.146Z,114.43
2022-12-17T19:53:52.695Z,104.07
2022-12-17T19:56:23.310Z,109.32
2022-12-17T19:58:52.554Z,108.50
2022-12-17T20:01:28.139Z,107.30
2022-12-17T20:03:55.192Z,102.93
2022-12-17T20:06:24.297Z,110.18
2022-12-17T20:08:51.165Z,99.25
2022-12-17T20:11:33.267Z,105.70
2022-12-17T20:14:16.182Z,105.35
2022-12-17T20:16:57.458Z,108.80
2022-12-17T20:19:26.012Z,113.20
2022-12-17T20:21:53.458Z,118.50
2022-12-17T20:24:23.544Z,109.80
2022-12-17T20:26:54.703Z,105.30
2022-12-17T20:29:22.635Z,100.13
2022-12-17T20:31:50.232Z,97.68
2022-12-17T20:34:18.010Z,100.05
2022-12-17T20:36:47.530Z,95.82
2022-12-17T20:39:14.230Z,87.85
2022-12-17T20:41:41.764Z,102.65
2022-12-17T20:44:11.510Z,101.63
2022-12-17T20:46:38.302Z,97.82
2022-12-17T20:49:05.559Z,93.13
2022-12-17T20:51:32.296Z,99.45
2022-12-17T20:54:00.135Z,92.95
2022-12-17T20:56:32.149Z,99.72
2022-12-17T20:59:04.601Z,95.40
2022-12-17T21:01:34.144Z,103.72
2022-12-17T21:04:01.621Z,100.63
2022-12-17T21:06:57.597Z,95.07
2022-12-17T21:09:25.447Z,88.53
2022-12-17T21:11:52.410Z,85.50
2022-12-17T21:14:19.563Z,97.15
2022-12-17T21:16:46.397Z,96.82
2022-12-17T21:19:20.207Z,103.25
2022-12-17T21:21:47.196Z,100.35
2022-12-17T21:24:13.859Z,91.25
2022-12-17T21:26:43.414Z,96.95
2022-12-17T21:29:10.664Z,89.18
2022-12-17T21:31:40.480Z,84.35
2022-12-17T21:34:11.470Z,89.78
2022-12-17T21:36:38.156Z,93.35
2022-12-17T21:39:09.008Z,103.38
2022-12-17T21:41:37.947Z,98.93
2022-12-17T21:44:07.243Z,98.28
2022-12-17T21:46:34.405Z,98.53
2022-12-17T21:49:02.330Z,94.13
2022-12-17T21:51:29.742Z,81.15
2022-12-17T21:53:58.744Z,93.13
2022-12-17T21:56:26.169Z,97.68
2022-12-17T21:59:01.079Z,88.47
2022-12-17T22:01:31.892Z,92.70
2022-12-17T22:04:00.319Z,92.97
2022-12-17T22:06:32.792Z,86.95
2022-12-17T22:09:11.187Z,90.70
2022-12-17T22:11:48.887Z,97.57
2022-12-17T22:14:20.904Z,87.97
2022-12-17T22:16:49.355Z,92.13
2022-12-17T22:19:23.005Z,101.90
2022-12-17T22:21:50.792Z,96.65
2022-12-17T22:24:19.795Z,102.68
2022-12-17T22:26:46.777Z,109.03
2022-12-17T22:29:33.383Z,97.65
2022-12-17T22:32:18.494Z,100.20
2022-12-17T22:36:30.764Z,96.97
2022-12-17T22:39:43.392Z,93.50
2022-12-17T22:44:28.681Z,95.95
2022-12-17T22:44:43.341Z,104.10
2022-12-17T22:46:15.270Z,86.97
2022-12-17T22:48:41.879Z,87.35
2022-12-17T22:51:11.977Z,86.88
2022-12-17T22:53:49.289Z,83.00
2022-12-17T22:56:24.523Z,90.05
2022-12-17T22:59:03.544Z,84.10
2022-12-17T23:01:30.408Z,84.38
2022-12-17T23:03:58.346Z,87.85
2022-12-17T23:06:25.998Z,89.80
2022-12-17T23:08:52.642Z,93.15
2022-12-17T23:11:24.290Z,100.18
2022-12-17T23:13:51.287Z,96.65
2022-12-17T23:16:18.205Z,94.05
2022-12-17T23:18:45.887Z,100.47
2022-12-17T23:21:17.096Z,109.75
2022-12-17T23:23:44.000Z,107.00
2022-12-17T23:26:13.481Z,111.70
2022-12-17T23:28:41.245Z,108.80
2022-12-17T23:31:17.620Z,108.85
2022-12-17T23:33:44.987Z,110.55
2022-12-17T23:36:14.280Z,126.70
2022-12-17T23:38:41.621Z,108.85
2022-12-17T23:41:11.230Z,110.63
2022-12-17T23:43:38.315Z,112.28
2022-12-17T23:46:05.962Z,115.13
2022-12-17T23:48:40.762Z,109.00
2022-12-17T23:51:13.350Z,112.88
2022-12-17T23:53:40.492Z,126.88
2022-12-17T23:56:18.587Z,121.47
2022-12-17T23:58:46.523Z,123.63
